sensor_id;sensor_type;location;lat;lon;timestamp;P1;durP1;ratioP1;P2;durP2;ratioP2
5343;SDS011;2694;48.954;8.928;2024-01-10T00:00:41;58.13;;;21.30;;
5343;SDS011;2694;48.954;8.928;2024-01-10T00:03:08;51.25;;;19.10;;
5343;SDS011;2694;48.954;8.928;2024-01-10T00:05:35;51.30;;;16.92;;
5343;SDS011;2694;48.954;8.928;2024-01-10T00:08:01;31.88;;;12.90;;
5343;SDS011;2694;48.954;8.928;2024-01-10T00:10:28;32.47;;;11.97;;
5343;SDS011;2694;48.954;8.928;2024-01-10T00:12:55;31.85;;;11.30;;
5343;SDS011;2694;48.954;8.928;2024-01-10T00:15:23;31.90;;;9.47;;
5343;SDS011;2694;48.954;8.928;2024-01-10T00:17:50;30.73;;;9.55;;
5343;SDS011;2694;48.954;8.928;2024-01-10T00:20:17;21.45;;;8.40;;
5343;SDS011;2694;48.954;8.928;2024-01-10T00:22:44;28.90;;;10.55;;
5343;SDS011;2694;48.954;8.928;2024-01-10T00:25:11;26.98;;;9.90;;
5343;SDS011;2694;48.954;8.928;2024-01-10T00:27:38;27.55;;;9.68;;
5343;SDS011;2694;48.954;8.928;2024-01-10T00:30:05;21.25;;;8.30;;
5343;SDS011;2694;48.954;8.928;2024-01-10T00:32:37;20.17;;;8.27;;
5343;SDS011;2694;48.954;8.928;2024-01-10T00:35:04;18.65;;;7.15;;
5343;SDS011;2694;48.954;8.928;2024-01-10T00:37:31;17.60;;;7.33;;
5343;SDS011;2694;48.954;8.928;2024-01-10T00:39:58;18.73;;;7.28;;
5343;SDS011;2694;48.954;8.928;2024-01-10T00:42:24;16.17;;;7.67;;
5343;SDS011;2694;48.954;8.928;2024-01-10T00:44:51;16.80;;;7.70;;
5343;SDS011;2694;48.954;8.928;2024-01-10T00:47:18;19.50;;;7.90;;
5343;SDS011;2694;48.954;8.928;2024-01-10T00:49:46;14.55;;;6.60;;
5343;SDS011;2694;48.954;8.928;2024-01-10T00:52:13;16.00;;;7.72;;
5343;SDS011;2694;48.954;8.928;2024-01-10T00:54:41;15.40;;;7.00;;
5343;SDS011;2694;48.954;8.928;2024-01-10T00:57:11;20.80;;;8.40;;
5343;SDS011;2694;48.954;8.928;2024-01-10T00:59:38;19.30;;;8.65;;
5343;SDS011;2694;48.954;8.928;2024-01-10T01:02:06;18.05;;;8.10;;
5343;SDS011;2694;48.954;8.928;2024-01-10T01:04:33;22.63;;;8.43;;
5343;SDS011;2694;48.954;8.928;2024-01-10T01:07:01;20.88;;;8.20;;
5343;SDS011;2694;48.954;8.928;2024-01-10T01:09:28;15.55;;;8.23;;
5343;SDS011;2694;48.954;8.928;2024-01-10T01:11:56;18.42;;;8.75;;
5343;SDS011;2694;48.954;8.928;2024-01-10T01:14:23;19.40;;;8.38;;
5343;SDS011;2694;48.954;8.928;2024-01-10T01:16:50;20.02;;;8.70;;
5343;SDS011;2694;48.954;8.928;2024-01-10T01:19:17;21.67;;;9.47;;
5343;SDS011;2694;48.954;8.928;2024-01-10T01:21:45;24.95;;;9.10;;
5343;SDS011;2694;48.954;8.928;2024-01-10T01:24:13;22.05;;;9.10;;
5343;SDS011;2694;48.954;8.928;2024-01-10T01:26:40;25.05;;;9.82;;
5343;SDS011;2694;48.954;8.928;2024-01-10T01:29:07;22.30;;;9.80;;
5343;SDS011;2694;48.954;8.928;2024-01-10T01:31:34;25.88;;;11.10;;
5343;SDS011;2694;48.954;8.928;2024-01-10T01:34:02;25.58;;;10.50;;
5343;SDS011;2694;48.954;8.928;2024-01-10T01:36:29;27.75;;;11.10;;
5343;SDS011;2694;48.954;8.928;2024-01-10T01:38:56;22.55;;;10.25;;
5343;SDS011;2694;48.954;8.928;2024-01-10T01:41:24;23.65;;;10.00;;
5343;SDS011;2694;48.954;8.928;2024-01-10T01:43:51;28.83;;;11.05;;
5343;SDS011;2694;48.954;8.928;2024-01-10T01:46:19;30.02;;;10.90;;
5343;SDS011;2694;48.954;8.928;2024-01-10T01:48:46;26.92;;;11.50;;
5343;SDS011;2694;48.954;8.928;2024-01-10T01:51:13;26.10;;;10.52;;
5343;SDS011;2694;48.954;8.928;2024-01-10T01:53:41;25.13;;;10.68;;
5343;SDS011;2694;48.954;8.928;2024-01-10T01:56:10;26.00;;;10.70;;
5343;SDS011;2694;48.954;8.928;2024-01-10T01:58:41;26.73;;;10.50;;
5343;SDS011;2694;48.954;8.928;2024-01-10T02:01:09;25.45;;;9.88;;
5343;SDS011;2694;48.954;8.928;2024-01-10T02:03:37;29.85;;;11.40;;
5343;SDS011;2694;48.954;8.928;2024-01-10T02:06:04;31.55;;;11.50;;
5343;SDS011;2694;48.954;8.928;2024-01-10T02:08:32;31.63;;;10.13;;
5343;SDS011;2694;48.954;8.928;2024-01-10T02:10:59;27.60;;;10.43;;
5343;SDS011;2694;48.954;8.928;2024-01-10T02:13:27;27.67;;;10.35;;
5343;SDS011;2694;48.954;8.928;2024-01-10T02:15:56;23.38;;;10.10;;
5343;SDS011;2694;48.954;8.928;2024-01-10T02:18:23;21.88;;;9.43;;
5343;SDS011;2694;48.954;8.928;2024-01-10T02:20:50;17.92;;;7.75;;
5343;SDS011;2694;48.954;8.928;2024-01-10T02:23:18;17.05;;;6.90;;
5343;SDS011;2694;48.954;8.928;2024-01-10T02:25:46;16.48;;;7.03;;
5343;SDS011;2694;48.954;8.928;2024-01-10T02:28:13;22.65;;;7.60;;
5343;SDS011;2694;48.954;8.928;2024-01-10T02:30:40;16.92;;;7.40;;
5343;SDS011;2694;48.954;8.928;2024-01-10T02:33:06;15.13;;;7.00;;
5343;SDS011;2694;48.954;8.928;2024-01-10T02:35:33;18.75;;;7.00;;
5343;SDS011;2694;48.954;8.928;2024-01-10T02:38:01;16.67;;;7.40;;
5343;SDS011;2694;48.954;8.928;2024-01-10T02:40:29;16.40;;;6.88;;
5343;SDS011;2694;48.954;8.928;2024-01-10T02:42:57;14.63;;;6.95;;
5343;SDS011;2694;48.954;8.928;2024-01-10T02:45:24;18.88;;;7.65;;
5343;SDS011;2694;48.954;8.928;2024-01-10T02:47:50;18.25;;;6.50;;
5343;SDS011;2694;48.954;8.928;2024-01-10T02:50:17;21.23;;;6.95;;
5343;SDS011;2694;48.954;8.928;2024-01-10T02:52:44;18.75;;;8.02;;
5343;SDS011;2694;48.954;8.928;2024-01-10T02:55:11;14.80;;;7.15;;
5343;SDS011;2694;48.954;8.928;2024-01-10T02:57:38;19.13;;;7.25;;
5343;SDS011;2694;48.954;8.928;2024-01-10T03:00:07;19.63;;;8.25;;
5343;SDS011;2694;48.954;8.928;2024-01-10T03:02:34;20.10;;;7.93;;
5343;SDS011;2694;48.954;8.928;2024-01-10T03:05:01;21.35;;;8.10;;
5343;SDS011;2694;48.954;8.928;2024-01-10T03:07:28;16.00;;;7.30;;
5343;SDS011;2694;48.954;8.928;2024-01-10T03:09:55;20.60;;;7.70;;
5343;SDS011;2694;48.954;8.928;2024-01-10T03:12:22;18.13;;;7.35;;
5343;SDS011;2694;48.954;8.928;2024-01-10T03:14:49;18.52;;;7.65;;
5343;SDS011;2694;48.954;8.928;2024-01-10T03:17:17;19.85;;;8.10;;
5343;SDS011;2694;48.954;8.928;2024-01-10T03:19:44;18.67;;;8.18;;
5343;SDS011;2694;48.954;8.928;2024-01-10T03:22:11;20.80;;;7.60;;
5343;SDS011;2694;48.954;8.928;2024-01-10T03:24:38;19.10;;;7.70;;
5343;SDS011;2694;48.954;8.928;2024-01-10T03:27:05;17.42;;;8.07;;
5343;SDS011;2694;48.954;8.928;2024-01-10T03:29:32;21.55;;;8.63;;
5343;SDS011;2694;48.954;8.928;2024-01-10T03:32:00;17.73;;;7.78;;
5343;SDS011;2694;48.954;8.928;2024-01-10T03:34:28;18.00;;;7.43;;
5343;SDS011;2694;48.954;8.928;2024-01-10T03:36:55;14.00;;;7.50;;
5343;SDS011;2694;48.954;8.928;2024-01-10T03:39:22;16.63;;;7.82;;
5343;SDS011;2694;48.954;8.928;2024-01-10T03:41:50;25.50;;;8.40;;
5343;SDS011;2694;48.954;8.928;2024-01-10T03:44:16;16.77;;;8.13;;
5343;SDS011;2694;48.954;8.928;2024-01-10T03:46:43;17.30;;;7.32;;
5343;SDS011;2694;48.954;8.928;2024-01-10T03:49:10;16.63;;;7.30;;
5343;SDS011;2694;48.954;8.928;2024-01-10T03:51:38;17.27;;;7.70;;
5343;SDS011;2694;48.954;8.928;2024-01-10T03:54:06;18.17;;;7.68;;
5343;SDS011;2694;48.954;8.928;2024-01-10T03:56:33;24.67;;;8.90;;
5343;SDS011;2694;48.954;8.928;2024-01-10T03:59:00;19.48;;;8.10;;
5343;SDS011;2694;48.954;8.928;2024-01-10T04:01:27;20.60;;;8.35;;
5343;SDS011;2694;48.954;8.928;2024-01-10T04:03:54;22.08;;;8.38;;
5343;SDS011;2694;48.954;8.928;2024-01-10T04:06:21;20.63;;;8.00;;
5343;SDS011;2694;48.954;8.928;2024-01-10T04:08:49;15.30;;;8.30;;
5343;SDS011;2694;48.954;8.928;2024-01-10T04:11:16;21.30;;;8.23;;
5343;SDS011;2694;48.954;8.928;2024-01-10T04:13:42;17.67;;;8.02;;
5343;SDS011;2694;48.954;8.928;2024-01-10T04:16:09;16.75;;;7.50;;
5343;SDS011;2694;48.954;8.928;2024-01-10T04:18:36;16.27;;;7.20;;
5343;SDS011;2694;48.954;8.928;2024-01-10T04:21:03;20.10;;;8.30;;
5343;SDS011;2694;48.954;8.928;2024-01-10T04:23:30;17.15;;;7.95;;
5343;SDS011;2694;48.954;8.928;2024-01-10T04:26:00;14.55;;;7.80;;
5343;SDS011;2694;48.954;8.928;2024-01-10T04:28:27;18.80;;;8.25;;
5343;SDS011;2694;48.954;8.928;2024-01-10T04:30:54;18.95;;;8.77;;
5343;SDS011;2694;48.954;8.928;2024-01-10T04:33:21;17.45;;;8.20;;
5343;SDS011;2694;48.954;8.928;2024-01-10T04:35:48;15.80;;;6.75;;
5343;SDS011;2694;48.954;8.928;2024-01-10T04:38:14;17.42;;;7.82;;
5343;SDS011;2694;48.954;8.928;2024-01-10T04:40:41;18.42;;;8.00;;
5343;SDS011;2694;48.954;8.928;2024-01-10T04:43:10;20.90;;;8.82;;
5343;SDS011;2694;48.954;8.928;2024-01-10T04:45:36;30.13;;;11.37;;
5343;SDS011;2694;48.954;8.928;2024-01-10T04:48:03;28.33;;;10.82;;
5343;SDS011;2694;48.954;8.928;2024-01-10T04:50:31;23.60;;;8.50;;
5343;SDS011;2694;48.954;8.928;2024-01-10T04:52:57;19.10;;;8.13;;
5343;SDS011;2694;48.954;8.928;2024-01-10T04:55:24;18.02;;;7.95;;
5343;SDS011;2694;48.954;8.928;2024-01-10T04:57:53;19.67;;;9.00;;
5343;SDS011;2694;48.954;8.928;2024-01-10T05:00:21;19.88;;;9.00;;
5343;SDS011;2694;48.954;8.928;2024-01-10T05:02:48;19.75;;;8.88;;
5343;SDS011;2694;48.954;8.928;2024-01-10T05:05:14;17.98;;;8.35;;
5343;SDS011;2694;48.954;8.928;2024-01-10T05:07:43;18.48;;;8.10;;
5343;SDS011;2694;48.954;8.928;2024-01-10T05:10:10;16.38;;;7.70;;
5343;SDS011;2694;48.954;8.928;2024-01-10T05:12:37;21.35;;;8.82;;
5343;SDS011;2694;48.954;8.928;2024-01-10T05:15:04;18.13;;;7.90;;
5343;SDS011;2694;48.954;8.928;2024-01-10T05:17:33;22.55;;;9.07;;
5343;SDS011;2694;48.954;8.928;2024-01-10T05:20:00;20.80;;;8.30;;
5343;SDS011;2694;48.954;8.928;2024-01-10T05:22:27;22.73;;;7.15;;
5343;SDS011;2694;48.954;8.928;2024-01-10T05:24:55;21.55;;;8.40;;
5343;SDS011;2694;48.954;8.928;2024-01-10T05:27:22;20.85;;;9.02;;
5343;SDS011;2694;48.954;8.928;2024-01-10T05:29:48;22.25;;;9.13;;
5343;SDS011;2694;48.954;8.928;2024-01-10T05:32:15;22.52;;;10.18;;
5343;SDS011;2694;48.954;8.928;2024-01-10T05:34:43;19.15;;;8.90;;
5343;SDS011;2694;48.954;8.928;2024-01-10T05:37:10;18.73;;;8.02;;
5343;SDS011;2694;48.954;8.928;2024-01-10T05:39:37;22.93;;;9.60;;
5343;SDS011;2694;48.954;8.928;2024-01-10T05:42:04;21.25;;;9.32;;
5343;SDS011;2694;48.954;8.928;2024-01-10T05:44:31;19.80;;;8.20;;
5343;SDS011;2694;48.954;8.928;2024-01-10T05:46:58;18.98;;;8.38;;
5343;SDS011;2694;48.954;8.928;2024-01-10T05:49:25;19.13;;;8.13;;
5343;SDS011;2694;48.954;8.928;2024-01-10T05:51:53;22.35;;;10.00;;
5343;SDS011;2694;48.954;8.928;2024-01-10T05:54:20;19.73;;;9.70;;
5343;SDS011;2694;48.954;8.928;2024-01-10T05:56:47;20.88;;;8.63;;
5343;SDS011;2694;48.954;8.928;2024-01-10T05:59:14;18.60;;;8.80;;
5343;SDS011;2694;48.954;8.928;2024-01-10T06:01:42;18.20;;;7.90;;
5343;SDS011;2694;48.954;8.928;2024-01-10T06:04:09;17.08;;;8.40;;
5343;SDS011;2694;48.954;8.928;2024-01-10T06:06:35;18.58;;;9.20;;
5343;SDS011;2694;48.954;8.928;2024-01-10T06:09:04;17.77;;;8.50;;
5343;SDS011;2694;48.954;8.928;2024-01-10T06:11:30;18.37;;;8.63;;
5343;SDS011;2694;48.954;8.928;2024-01-10T06:13:57;19.38;;;8.88;;
5343;SDS011;2694;48.954;8.928;2024-01-10T06:16:24;18.52;;;8.07;;
5343;SDS011;2694;48.954;8.928;2024-01-10T06:18:51;19.48;;;8.27;;
5343;SDS011;2694;48.954;8.928;2024-01-10T06:21:18;20.80;;;8.20;;
5343;SDS011;2694;48.954;8.928;2024-01-10T06:23:45;20.25;;;8.88;;
5343;SDS011;2694;48.954;8.928;2024-01-10T06:26:14;19.67;;;8.48;;
5343;SDS011;2694;48.954;8.928;2024-01-10T06:28:41;16.13;;;7.82;;
5343;SDS011;2694;48.954;8.928;2024-01-10T06:31:08;17.40;;;7.85;;
5343;SDS011;2694;48.954;8.928;2024-01-10T06:33:35;19.13;;;7.93;;
5343;SDS011;2694;48.954;8.928;2024-01-10T06:36:02;17.90;;;8.20;;
5343;SDS011;2694;48.954;8.928;2024-01-10T06:38:29;18.55;;;8.48;;
5343;SDS011;2694;48.954;8.928;2024-01-10T06:40:56;20.05;;;8.30;;
5343;SDS011;2694;48.954;8.928;2024-01-10T06:43:24;22.13;;;8.40;;
5343;SDS011;2694;48.954;8.928;2024-01-10T06:45:51;18.33;;;8.05;;
5343;SDS011;2694;48.954;8.928;2024-01-10T06:48:18;17.27;;;8.00;;
5343;SDS011;2694;48.954;8.928;2024-01-10T06:50:45;21.27;;;8.88;;
5343;SDS011;2694;48.954;8.928;2024-01-10T06:53:12;19.90;;;7.90;;
5343;SDS011;2694;48.954;8.928;2024-01-10T06:55:39;20.33;;;9.17;;
5343;SDS011;2694;48.954;8.928;2024-01-10T06:58:05;20.05;;;8.50;;
5343;SDS011;2694;48.954;8.928;2024-01-10T07:00:34;17.03;;;8.10;;
5343;SDS011;2694;48.954;8.928;2024-01-10T07:03:03;19.88;;;8.77;;
5343;SDS011;2694;48.954;8.928;2024-01-10T07:05:30;22.37;;;8.83;;
5343;SDS011;2694;48.954;8.928;2024-01-10T07:07:57;18.98;;;8.85;;
5343;SDS011;2694;48.954;8.928;2024-01-10T07:10:24;20.50;;;8.98;;
5343;SDS011;2694;48.954;8.928;2024-01-10T07:12:52;18.30;;;8.65;;
5343;SDS011;2694;48.954;8.928;2024-01-10T07:15:19;22.45;;;8.98;;
5343;SDS011;2694;48.954;8.928;2024-01-10T07:17:47;18.00;;;8.57;;
5343;SDS011;2694;48.954;8.928;2024-01-10T07:20:14;21.58;;;8.75;;
5343;SDS011;2694;48.954;8.928;2024-01-10T07:22:41;17.53;;;8.63;;
5343;SDS011;2694;48.954;8.928;2024-01-10T07:25:09;18.43;;;8.50;;
5343;SDS011;2694;48.954;8.928;2024-01-10T07:27:39;21.48;;;9.10;;
5343;SDS011;2694;48.954;8.928;2024-01-10T07:30:07;21.95;;;8.73;;
5343;SDS011;2694;48.954;8.928;2024-01-10T07:32:38;20.65;;;8.45;;
5343;SDS011;2694;48.954;8.928;2024-01-10T07:35:07;20.02;;;8.95;;
5343;SDS011;2694;48.954;8.928;2024-01-10T07:37:35;23.67;;;8.70;;
5343;SDS011;2694;48.954;8.928;2024-01-10T07:40:03;26.20;;;11.02;;
5343;SDS011;2694;48.954;8.928;2024-01-10T07:42:31;23.42;;;10.00;;
5343;SDS011;2694;48.954;8.928;2024-01-10T07:44:58;26.83;;;10.25;;
5343;SDS011;2694;48.954;8.928;2024-01-10T07:47:29;21.23;;;9.53;;
5343;SDS011;2694;48.954;8.928;2024-01-10T07:49:56;24.55;;;9.30;;
5343;SDS011;2694;48.954;8.928;2024-01-10T07:52:24;20.75;;;9.68;;
5343;SDS011;2694;48.954;8.928;2024-01-10T07:54:50;30.02;;;12.05;;
5343;SDS011;2694;48.954;8.928;2024-01-10T07:57:17;33.53;;;12.88;;
5343;SDS011;2694;48.954;8.928;2024-01-10T07:59:44;21.10;;;10.05;;
5343;SDS011;2694;48.954;8.928;2024-01-10T08:02:11;24.60;;;10.48;;
5343;SDS011;2694;48.954;8.928;2024-01-10T08:04:38;26.55;;;10.40;;
5343;SDS011;2694;48.954;8.928;2024-01-10T08:07:05;21.15;;;9.23;;
5343;SDS011;2694;48.954;8.928;2024-01-10T08:09:32;26.60;;;11.20;;
5343;SDS011;2694;48.954;8.928;2024-01-10T08:11:59;18.27;;;9.30;;
5343;SDS011;2694;48.954;8.928;2024-01-10T08:14:26;24.10;;;10.38;;
5343;SDS011;2694;48.954;8.928;2024-01-10T08:16:53;24.63;;;10.80;;
5343;SDS011;2694;48.954;8.928;2024-01-10T08:19:23;23.42;;;9.88;;
5343;SDS011;2694;48.954;8.928;2024-01-10T08:21:51;24.33;;;10.50;;
5343;SDS011;2694;48.954;8.928;2024-01-10T08:24:18;24.10;;;10.18;;
5343;SDS011;2694;48.954;8.928;2024-01-10T08:26:46;21.85;;;9.02;;
5343;SDS011;2694;48.954;8.928;2024-01-10T08:29:14;22.38;;;10.20;;
5343;SDS011;2694;48.954;8.928;2024-01-10T08:31:42;21.13;;;9.13;;
5343;SDS011;2694;48.954;8.928;2024-01-10T08:34:09;27.48;;;10.10;;
5343;SDS011;2694;48.954;8.928;2024-01-10T08:36:36;23.08;;;10.32;;
5343;SDS011;2694;48.954;8.928;2024-01-10T08:39:03;24.93;;;10.73;;
5343;SDS011;2694;48.954;8.928;2024-01-10T08:41:31;24.95;;;10.82;;
5343;SDS011;2694;48.954;8.928;2024-01-10T08:43:59;25.00;;;10.85;;
5343;SDS011;2694;48.954;8.928;2024-01-10T08:46:27;28.60;;;10.90;;
5343;SDS011;2694;48.954;8.928;2024-01-10T08:48:54;29.67;;;10.40;;
5343;SDS011;2694;48.954;8.928;2024-01-10T08:51:21;25.85;;;10.68;;
5343;SDS011;2694;48.954;8.928;2024-01-10T08:53:48;23.70;;;9.93;;
5343;SDS011;2694;48.954;8.928;2024-01-10T08:56:15;23.38;;;9.20;;
5343;SDS011;2694;48.954;8.928;2024-01-10T08:58:42;25.20;;;10.10;;
5343;SDS011;2694;48.954;8.928;2024-01-10T09:01:10;20.15;;;9.55;;
5343;SDS011;2694;48.954;8.928;2024-01-10T09:03:37;24.30;;;9.32;;
5343;SDS011;2694;48.954;8.928;2024-01-10T09:06:04;25.50;;;10.77;;
5343;SDS011;2694;48.954;8.928;2024-01-10T09:08:32;19.73;;;10.13;;
5343;SDS011;2694;48.954;8.928;2024-01-10T09:10:59;22.50;;;9.45;;
5343;SDS011;2694;48.954;8.928;2024-01-10T09:13:26;24.70;;;10.00;;
5343;SDS011;2694;48.954;8.928;2024-01-10T09:15:53;23.40;;;9.57;;
5343;SDS011;2694;48.954;8.928;2024-01-10T09:18:21;21.52;;;9.82;;
5343;SDS011;2694;48.954;8.928;2024-01-10T09:20:48;22.57;;;9.60;;
5343;SDS011;2694;48.954;8.928;2024-01-10T09:23:15;19.98;;;9.50;;
5343;SDS011;2694;48.954;8.928;2024-01-10T09:25:42;25.93;;;9.90;;
5343;SDS011;2694;48.954;8.928;2024-01-10T09:28:09;26.42;;;10.63;;
5343;SDS011;2694;48.954;8.928;2024-01-10T09:30:36;22.25;;;10.35;;
5343;SDS011;2694;48.954;8.928;2024-01-10T09:33:03;25.60;;;10.40;;
5343;SDS011;2694;48.954;8.928;2024-01-10T09:35:31;27.45;;;11.40;;
5343;SDS011;2694;48.954;8.928;2024-01-10T09:37:58;28.17;;;11.70;;
5343;SDS011;2694;48.954;8.928;2024-01-10T09:40:25;25.30;;;10.70;;
5343;SDS011;2694;48.954;8.928;2024-01-10T09:42:54;23.75;;;10.55;;
5343;SDS011;2694;48.954;8.928;2024-01-10T09:45:21;25.45;;;10.32;;
5343;SDS011;2694;48.954;8.928;2024-01-10T09:47:52;27.13;;;10.50;;
5343;SDS011;2694;48.954;8.928;2024-01-10T09:50:21;25.80;;;10.98;;
5343;SDS011;2694;48.954;8.928;2024-01-10T09:52:52;24.42;;;10.73;;
5343;SDS011;2694;48.954;8.928;2024-01-10T09:55:21;22.10;;;10.52;;
5343;SDS011;2694;48.954;8.928;2024-01-10T09:57:48;21.88;;;10.20;;
5343;SDS011;2694;48.954;8.928;2024-01-10T10:00:16;25.35;;;11.18;;
5343;SDS011;2694;48.954;8.928;2024-01-10T10:02:43;25.95;;;11.60;;
5343;SDS011;2694;48.954;8.928;2024-01-10T10:05:13;21.27;;;10.77;;
5343;SDS011;2694;48.954;8.928;2024-01-10T10:07:44;26.88;;;10.60;;
5343;SDS011;2694;48.954;8.928;2024-01-10T10:10:13;25.45;;;11.40;;
5343;SDS011;2694;48.954;8.928;2024-01-10T10:12:44;22.85;;;11.82;;
5343;SDS011;2694;48.954;8.928;2024-01-10T10:15:12;26.10;;;11.93;;
5343;SDS011;2694;48.954;8.928;2024-01-10T10:17:43;24.48;;;11.45;;
5343;SDS011;2694;48.954;8.928;2024-01-10T10:20:14;25.60;;;12.18;;
5343;SDS011;2694;48.954;8.928;2024-01-10T10:22:50;25.13;;;11.57;;
5343;SDS011;2694;48.954;8.928;2024-01-10T10:25:27;24.88;;;11.45;;
5343;SDS011;2694;48.954;8.928;2024-01-10T10:27:56;23.83;;;11.95;;
5343;SDS011;2694;48.954;8.928;2024-01-10T10:30:23;29.23;;;12.88;;
5343;SDS011;2694;48.954;8.928;2024-01-10T10:32:50;31.10;;;12.65;;
5343;SDS011;2694;48.954;8.928;2024-01-10T10:35:18;23.42;;;11.88;;
5343;SDS011;2694;48.954;8.928;2024-01-10T10:37:45;26.73;;;12.43;;
5343;SDS011;2694;48.954;8.928;2024-01-10T10:40:13;23.73;;;11.65;;
5343;SDS011;2694;48.954;8.928;2024-01-10T10:42:43;27.42;;;12.45;;
5343;SDS011;2694;48.954;8.928;2024-01-10T10:45:12;27.95;;;12.25;;
5343;SDS011;2694;48.954;8.928;2024-01-10T10:47:43;30.00;;;12.90;;
5343;SDS011;2694;48.954;8.928;2024-01-10T10:50:12;31.15;;;13.13;;
5343;SDS011;2694;48.954;8.928;2024-01-10T10:52:41;31.83;;;13.15;;
5343;SDS011;2694;48.954;8.928;2024-01-10T10:55:13;26.10;;;12.45;;
5343;SDS011;2694;48.954;8.928;2024-01-10T10:57:42;25.70;;;12.32;;
5343;SDS011;2694;48.954;8.928;2024-01-10T11:00:11;29.80;;;13.00;;
5343;SDS011;2694;48.954;8.928;2024-01-10T11:02:40;31.80;;;12.20;;
5343;SDS011;2694;48.954;8.928;2024-01-10T11:05:07;28.02;;;12.50;;
5343;SDS011;2694;48.954;8.928;2024-01-10T11:07:35;28.27;;;13.10;;
5343;SDS011;2694;48.954;8.928;2024-01-10T11:10:02;28.77;;;13.23;;
5343;SDS011;2694;48.954;8.928;2024-01-10T11:12:37;29.95;;;13.00;;
5343;SDS011;2694;48.954;8.928;2024-01-10T11:15:24;26.92;;;13.30;;
5343;SDS011;2694;48.954;8.928;2024-01-10T11:18:17;30.60;;;13.57;;
5343;SDS011;2694;48.954;8.928;2024-01-10T11:21:03;29.00;;;13.05;;
5343;SDS011;2694;48.954;8.928;2024-01-10T11:23:42;31.30;;;13.02;;
5343;SDS011;2694;48.954;8.928;2024-01-10T11:26:10;30.40;;;13.63;;
5343;SDS011;2694;48.954;8.928;2024-01-10T11:28:40;25.20;;;11.97;;
5343;SDS011;2694;48.954;8.928;2024-01-10T11:31:07;27.25;;;13.23;;
5343;SDS011;2694;48.954;8.928;2024-01-10T11:33:35;31.83;;;13.82;;
5343;SDS011;2694;48.954;8.928;2024-01-10T11:36:09;28.90;;;12.90;;
5343;SDS011;2694;48.954;8.928;2024-01-10T11:38:41;30.73;;;13.10;;
5343;SDS011;2694;48.954;8.928;2024-01-10T11:41:10;32.10;;;13.30;;
5343;SDS011;2694;48.954;8.928;2024-01-10T11:43:38;29.83;;;12.73;;
5343;SDS011;2694;48.954;8.928;2024-01-10T11:46:06;28.42;;;12.55;;
5343;SDS011;2694;48.954;8.928;2024-01-10T11:48:33;31.52;;;14.20;;
5343;SDS011;2694;48.954;8.928;2024-01-10T11:51:04;32.53;;;14.60;;
5343;SDS011;2694;48.954;8.928;2024-01-10T11:53:39;27.52;;;12.75;;
5343;SDS011;2694;48.954;8.928;2024-01-10T11:56:10;30.27;;;14.23;;
5343;SDS011;2694;48.954;8.928;2024-01-10T11:58:54;29.27;;;13.57;;
5343;SDS011;2694;48.954;8.928;2024-01-10T12:01:26;30.40;;;13.45;;
5343;SDS011;2694;48.954;8.928;2024-01-10T12:03:53;29.05;;;13.75;;
5343;SDS011;2694;48.954;8.928;2024-01-10T12:06:25;27.10;;;13.52;;
5343;SDS011;2694;48.954;8.928;2024-01-10T12:08:52;29.77;;;13.43;;
5343;SDS011;2694;48.954;8.928;2024-01-10T12:11:18;33.45;;;14.13;;
5343;SDS011;2694;48.954;8.928;2024-01-10T12:13:46;30.08;;;14.38;;
5343;SDS011;2694;48.954;8.928;2024-01-10T12:16:14;31.10;;;14.38;;
5343;SDS011;2694;48.954;8.928;2024-01-10T12:18:43;29.83;;;13.95;;
5343;SDS011;2694;48.954;8.928;2024-01-10T12:21:10;30.88;;;14.13;;
5343;SDS011;2694;48.954;8.928;2024-01-10T12:23:37;31.15;;;13.80;;
5343;SDS011;2694;48.954;8.928;2024-01-10T12:26:07;30.75;;;13.77;;
5343;SDS011;2694;48.954;8.928;2024-01-10T12:28:36;31.70;;;14.15;;
5343;SDS011;2694;48.954;8.928;2024-01-10T12:31:04;31.38;;;13.88;;
5343;SDS011;2694;48.954;8.928;2024-01-10T12:33:35;30.05;;;13.95;;
5343;SDS011;2694;48.954;8.928;2024-01-10T12:36:05;31.73;;;13.48;;
5343;SDS011;2694;48.954;8.928;2024-01-10T12:38:33;32.00;;;15.10;;
5343;SDS011;2694;48.954;8.928;2024-01-10T12:41:00;35.55;;;15.20;;
5343;SDS011;2694;48.954;8.928;2024-01-10T12:43:27;31.93;;;14.70;;
5343;SDS011;2694;48.954;8.928;2024-01-10T12:46:02;32.47;;;15.02;;
5343;SDS011;2694;48.954;8.928;2024-01-10T12:48:29;33.30;;;14.88;;
5343;SDS011;2694;48.954;8.928;2024-01-10T12:50:59;31.83;;;14.50;;
5343;SDS011;2694;48.954;8.928;2024-01-10T12:53:29;34.22;;;14.98;;
5343;SDS011;2694;48.954;8.928;2024-01-10T12:55:56;29.73;;;14.45;;
5343;SDS011;2694;48.954;8.928;2024-01-10T12:58:23;33.53;;;16.73;;
5343;SDS011;2694;48.954;8.928;2024-01-10T13:00:50;33.90;;;14.52;;
5343;SDS011;2694;48.954;8.928;2024-01-10T13:03:17;34.63;;;14.80;;
5343;SDS011;2694;48.954;8.928;2024-01-10T13:05:45;28.63;;;13.98;;
5343;SDS011;2694;48.954;8.928;2024-01-10T13:08:13;35.92;;;15.43;;
5343;SDS011;2694;48.954;8.928;2024-01-10T13:10:40;31.92;;;13.70;;
5343;SDS011;2694;48.954;8.928;2024-01-10T13:13:07;32.72;;;14.02;;
5343;SDS011;2694;48.954;8.928;2024-01-10T13:15:34;31.48;;;14.52;;
5343;SDS011;2694;48.954;8.928;2024-01-10T13:18:01;40.47;;;15.13;;
5343;SDS011;2694;48.954;8.928;2024-01-10T13:20:29;39.70;;;14.40;;
5343;SDS011;2694;48.954;8.928;2024-01-10T13:22:55;32.30;;;14.90;;
5343;SDS011;2694;48.954;8.928;2024-01-10T13:25:24;35.83;;;15.52;;
5343;SDS011;2694;48.954;8.928;2024-01-10T13:27:50;31.15;;;14.82;;
5343;SDS011;2694;48.954;8.928;2024-01-10T13:30:17;33.80;;;15.70;;
5343;SDS011;2694;48.954;8.928;2024-01-10T13:32:44;32.05;;;15.18;;
5343;SDS011;2694;48.954;8.928;2024-01-10T13:35:12;33.03;;;16.17;;
5343;SDS011;2694;48.954;8.928;2024-01-10T13:37:39;35.35;;;14.65;;
5343;SDS011;2694;48.954;8.928;2024-01-10T13:40:07;37.08;;;15.75;;
5343;SDS011;2694;48.954;8.928;2024-01-10T13:42:37;37.63;;;15.30;;
5343;SDS011;2694;48.954;8.928;2024-01-10T13:45:04;31.20;;;14.80;;
5343;SDS011;2694;48.954;8.928;2024-01-10T13:47:32;35.08;;;14.88;;
5343;SDS011;2694;48.954;8.928;2024-01-10T13:50:00;32.88;;;15.25;;
5343;SDS011;2694;48.954;8.928;2024-01-10T13:52:28;30.38;;;14.65;;
5343;SDS011;2694;48.954;8.928;2024-01-10T13:54:55;32.60;;;14.45;;
5343;SDS011;2694;48.954;8.928;2024-01-10T13:57:22;34.92;;;15.45;;
5343;SDS011;2694;48.954;8.928;2024-01-10T13:59:50;31.63;;;15.38;;
5343;SDS011;2694;48.954;8.928;2024-01-10T14:02:20;33.67;;;15.43;;
5343;SDS011;2694;48.954;8.928;2024-01-10T14:04:47;35.50;;;15.20;;
5343;SDS011;2694;48.954;8.928;2024-01-10T14:07:14;31.33;;;14.90;;
5343;SDS011;2694;48.954;8.928;2024-01-10T14:09:41;32.93;;;15.20;;
5343;SDS011;2694;48.954;8.928;2024-01-10T14:12:08;36.28;;;16.40;;
5343;SDS011;2694;48.954;8.928;2024-01-10T14:14:35;31.70;;;15.70;;
5343;SDS011;2694;48.954;8.928;2024-01-10T14:17:03;30.88;;;15.52;;
5343;SDS011;2694;48.954;8.928;2024-01-10T14:19:30;33.55;;;15.35;;
5343;SDS011;2694;48.954;8.928;2024-01-10T14:21:57;31.77;;;15.13;;
5343;SDS011;2694;48.954;8.928;2024-01-10T14:24:24;33.05;;;15.40;;
5343;SDS011;2694;48.954;8.928;2024-01-10T14:26:51;34.13;;;15.13;;
5343;SDS011;2694;48.954;8.928;2024-01-10T14:29:18;31.95;;;15.32;;
5343;SDS011;2694;48.954;8.928;2024-01-10T14:31:47;34.78;;;15.88;;
5343;SDS011;2694;48.954;8.928;2024-01-10T14:34:15;37.85;;;16.23;;
5343;SDS011;2694;48.954;8.928;2024-01-10T14:36:42;32.70;;;15.70;;
5343;SDS011;2694;48.954;8.928;2024-01-10T14:39:09;34.88;;;16.00;;
5343;SDS011;2694;48.954;8.928;2024-01-10T14:41:37;38.30;;;15.45;;
5343;SDS011;2694;48.954;8.928;2024-01-10T14:44:04;34.85;;;15.75;;
5343;SDS011;2694;48.954;8.928;2024-01-10T14:46:31;30.92;;;14.43;;
5343;SDS011;2694;48.954;8.928;2024-01-10T14:48:58;36.85;;;14.57;;
5343;SDS011;2694;48.954;8.928;2024-01-10T14:51:26;31.73;;;14.38;;
5343;SDS011;2694;48.954;8.928;2024-01-10T14:53:53;31.77;;;15.68;;
5343;SDS011;2694;48.954;8.928;2024-01-10T14:56:20;36.42;;;15.13;;
5343;SDS011;2694;48.954;8.928;2024-01-10T14:58:48;31.42;;;13.60;;